Edward Cornwallis — CGJV — position and weather

sailwx.info

Track history (hours):
 
Tides and Currents Weather Stations Pressure Air Temp Water Temp Dewpoint Dewpoint Depression Visibility Wind Speed Wind Dir Waves Ship Positions

Edward Cornwallis

Last reported at 2017-Jan-17 08:00 UTC. Time now 2017-Jan-17 08:50 UTC.
Position N 46°36' W 061°18'.

Length 83 m; draft 6 m.

Type: SAR. MMSI: 316020000.

Wind from 310 at 25 knots

Barometer 1013.0 mb
Air temperature -0.6 ° C
Dewpoint -4.0 ° C

Date/timePositionNaut miles runAvg speedWind from/ knotsBaromVisibWave heightAir tempDewpointWater temp
2017-Jan-17 08:00N 46°36' W 061°18'7 7.3 310 / 251013.0 -0.6-4.0
2017-Jan-17 07:00N 46°42' W 061°12'7 7.3 290 / 251012.5 -0.9-4.0
2017-Jan-17 06:00N 46°48' W 061°06'7 7.3 290 / 271012.1 -1.0-4.0
2017-Jan-17 05:00N 46°54' W 061°00'4 4.1 270 / 281011.3 -1.4-2.6
2017-Jan-17 04:00N 46°54' W 060°54'4 4.1 260 / 271011.6 -1.4-3.2
2017-Jan-17 03:00N 46°54' W 060°48'1514.5 220 / 291012.2 -2.9-3.6
2017-Jan-17 02:00N 47°06' W 060°36'17 8.6 220 / 291012.7 -4.2-7.3
2017-Jan-17 00:00N 46°54' W 060°18'1312.7 200 / 211018.2 -6.2-12.9
2017-Jan-16 23:00N 46°42' W 060°12'1514.6 200 / 191019.8 -6.4-12.8
2017-Jan-16 22:00N 46°30' W 060°24'0 0.0 220 / 211021.3 -6.7-13.5
2017-Jan-16 21:00N 46°30' W 060°24'7 7.3 220 / 101021.2 -6.3-11.9
2017-Jan-16 20:00N 46°36' W 060°18'4 4.1 220 / 141022.4 -6.0-13.0
2017-Jan-16 19:00N 46°36' W 060°24'0 0.0 240 / 71022.7 -5.7-12.1
2017-Jan-16 18:00N 46°36' W 060°24'7 7.3 260 / 51022.9 -5.6-12.4
2017-Jan-16 17:00N 46°42' W 060°18'0 0.0 220 / 81024.0 -5.7-12.2
2017-Jan-16 16:00N 46°42' W 060°18'6 6.0 260 / 41024.7 -7.3-10.9
2017-Jan-16 15:00N 46°48' W 060°18'6 6.0 240 / 81025.8 -6.6-12.9
2017-Jan-16 14:00N 46°54' W 060°18'4 4.1 270 / 51026.5 -7.2-13.1
2017-Jan-16 13:00N 46°54' W 060°24'0 0.0 280 / 91026.9 -7.7-12.6
2017-Jan-16 12:00N 46°54' W 060°24'0 0.0 290 / 101026.6 -8.2-13.2
2017-Jan-16 11:00N 46°54' W 060°24'4 4.1 310 / 121025.8 -8.2-13.3
2017-Jan-16 10:00N 46°54' W 060°18'4 4.1 330 / 161024.6 -8.0-13.0
2017-Jan-16 09:00N 46°54' W 060°12'4 4.1 310 / 251024.8 -8.4-13.3
2017-Jan-16 08:00N 46°54' W 060°18'0 0.0 310 / 231024.4 -8.3-12.1
2017-Jan-16 07:00N 46°54' W 060°18'0 0.0 310 / 211024.0 -8.4-12.3
2017-Jan-16 06:00N 46°54' W 060°18'0 0.0 300 / 211023.5 -8.4-12.4
2017-Jan-16 05:00N 46°54' W 060°18'0 0.0 310 / 251022.7 -8.4-13.9
2017-Jan-16 04:00N 46°54' W 060°18'0 0.0 300 / 201022.3 -8.2-15.3
2017-Jan-16 03:00N 46°54' W 060°18'0 0.0 310 / 231022.0 -7.8-13.8
2017-Jan-16 02:00N 46°54' W 060°18'1514.5 310 / 241021.9 -7.4-13.3
2017-Jan-16 01:00N 47°06' W 060°30'1616.3 310 / 281021.5 -7.9-13.8
2017-Jan-16 00:00N 47°06' W 060°54'1717.4 320 / 301021.1 -8.0-12.6
2017-Jan-15 23:00N 47°00' W 061°18'1212.3 320 / 311020.5 -8.2-8.9
2017-Jan-15 22:00N 47°00' W 061°36'1413.7 310 / 311020.0 -7.6-10.4
2017-Jan-15 21:00N 46°54' W 061°54'1616.4 320 / 261019.4 -7.3-11.8
2017-Jan-15 20:00N 46°54' W 062°18'1212.3 300 / 251019.2 -8.0-10.6
2017-Jan-15 19:00N 46°54' W 062°36'1212.3 310 / 231019.0 -8.4-11.4
2017-Jan-15 18:00N 46°54' W 062°54'1616.4 300 / 221018.6 -8.9-11.5
2017-Jan-15 17:00N 46°54' W 063°18'1717.5 300 / 211018.7 -9.0-12.6
2017-Jan-15 16:00N 46°48' W 063°42'8 8.2 300 / 221019.0 -9.2-13.1
2017-Jan-15 15:00N 46°48' W 063°54'6 6.0 300 / 131019.3 -9.5-13.7
2017-Jan-15 14:00N 46°54' W 063°54'1212.0 300 / 211019.0 -9.1-13.1
2017-Jan-15 13:00N 47°06' W 063°54'4 4.1 290 / 191018.1 -10.0-13.7
2017-Jan-15 12:00N 47°06' W 064°00'4 4.1 290 / 161017.8 -10.3-13.9
2017-Jan-15 11:00N 47°06' W 064°06'0 0.0 270 / 171017.6 -10.3-12.7
2017-Jan-15 10:00N 47°06' W 064°06'15 7.3 270 / 201017.8 -10.6-12.8
2017-Jan-15 08:00N 46°54' W 064°18'7 3.6 260 / 221019.3 -10.5-13.9
2017-Jan-15 06:00N 46°48' W 064°24'7 7.3 230 / 191021.3 -10.4-18.4
2017-Jan-15 05:00N 46°42' W 064°30'7 3.6 240 / 181022.4 -10.9-18.1
2017-Jan-15 03:00N 46°36' W 064°24'6 6.0 240 / 171024.7 -12.0-19.3
2017-Jan-15 02:00N 46°30' W 064°24'7 7.3 250 / 201025.9 -12.2-19.8
2017-Jan-15 01:00N 46°24' W 064°18'4 4.1 260 / 191026.6 -12.3-19.9
2017-Jan-15 00:00N 46°24' W 064°12'7 7.3 260 / 211027.4 -12.5-20.5
2017-Jan-14 23:00N 46°18' W 064°06'4 4.1 260 / 181028.2 -11.8-20.0
2017-Jan-14 22:00N 46°18' W 064°00'4 4.1 250 / 161028.5 -11.5-20.5
2017-Jan-14 21:00N 46°18' W 063°54'7 7.3 270 / 171028.8 -11.3-19.9
2017-Jan-14 20:00N 46°12' W 063°48'1413.8 270 / 181029.1 -11.5-19.5
2017-Jan-14 19:00N 46°06' W 063°30'1010.3 290 / 51029.6 -11.4-19.2
2017-Jan-14 18:00N 46°00' W 063°18'1817.7 290 / 71029.8 -12.2-18.8
2017-Jan-14 17:00N 45°54' W 062°54'8 8.4 310 / 81029.9 -12.5-16.5
2017-Jan-14 16:00N 45°54' W 062°42'1312.5 310 / 261030.5 -13.1-16.5
2017-Jan-14 15:00N 45°54' W 062°24'1312.7 290 / 201031.3 -12.7-17.3
2017-Jan-14 14:00N 46°06' W 062°18'0 0.0 290 / 261030.9 -12.4-16.0
2017-Jan-14 13:00N 46°06' W 062°18'7 7.3 280 / 291030.0 -12.8-15.3
2017-Jan-14 12:00N 46°12' W 062°12'4 4.2 280 / 301029.1 -12.5-14.2
2017-Jan-14 11:00N 46°12' W 062°06'6 6.0 280 / 291028.0 -11.6-13.3
2017-Jan-14 10:00N 46°18' W 062°06'1010.2 290 / 291026.7 -10.9-13.3
2017-Jan-14 09:00N 46°24' W 061°54'7 7.3 300 / 321026.3 -10.2-13.8
2017-Jan-14 08:00N 46°30' W 062°00'8 8.3 290 / 311026.5 -9.2-12.5
2017-Jan-14 07:00N 46°30' W 062°12'1010.2 300 / 321026.3 -9.9-13.8
2017-Jan-14 06:00N 46°36' W 062°24'4 4.1 300 / 321025.5 -9.1-12.1
2017-Jan-14 05:00N 46°36' W 062°30'4 4.1 290 / 321024.8 -8.6-13.8
2017-Jan-14 04:00N 46°36' W 062°36'1010.2 300 / 381024.2 -8.7-14.7
2017-Jan-14 03:00N 46°42' W 062°48'4 4.1 300 / 381023.8 -8.4-15.1
2017-Jan-14 02:00N 46°42' W 062°54'8 8.2 290 / 271023.3 -6.4-12.4
2017-Jan-14 01:00N 46°42' W 063°06'7 7.3 290 / 271022.2 -5.7-12.6
2017-Jan-14 00:00N 46°48' W 063°12'8 8.2 300 / 351020.9 -6.3-14.6
2017-Jan-13 23:00N 46°48' W 063°24'1010.2 300 / 341020.4 -5.5-14.0
2017-Jan-13 22:00N 46°54' W 063°36'4 4.1 300 / 241018.8 -4.1-13.9
2017-Jan-13 21:00N 46°54' W 063°42'4 4.1 310 / 311017.4 -4.1-10.0
2017-Jan-13 20:00N 46°54' W 063°48'6 6.0 300 / 301014.6 -2.7-9.3
2017-Jan-13 19:00N 46°48' W 063°48'1010.2 300 / 251013.0 -0.7-6.5
2017-Jan-13 18:00N 46°42' W 063°36'1212.3 330 / 271011.1 -1.0-3.2
2017-Jan-13 17:00N 46°42' W 063°18'1817.5 270 / 171010.0 2.9-2.1
2017-Jan-13 16:00N 46°36' W 062°54'1010.2 240 / 181010.6 3.1 1.0
2017-Jan-13 15:00N 46°30' W 062°42'1212.4 250 / 221010.4 3.7 1.6
2017-Jan-13 14:00N 46°30' W 062°24'0 0.0 260 / 171010.7 5.2 3.8
2017-Jan-13 13:00N 46°30' W 062°24'4 4.1 250 / 151010.1 6.1 5.4
2017-Jan-13 12:00N 46°30' W 062°18'8 8.3 250 / 181008.5 5.8 5.7
2017-Jan-13 11:00N 46°30' W 062°06'1212.4 240 / 191007.3 6.6 6.5
2017-Jan-13 10:00N 46°30' W 061°48'7 7.3 210 / 211007.2 4.2 4.2
2017-Jan-13 09:00N 46°24' W 061°42'7 7.3 200 / 161006.9 3.8 3.7
2017-Jan-13 08:00N 46°30' W 061°36'7 7.3 190 / 211006.5 4.2 4.1
2017-Jan-13 07:00N 46°36' W 061°30'4 4.1 190 / 221006.9 4.4 4.3
2017-Jan-13 06:00N 46°36' W 061°24'7 7.3 190 / 241007.1 4.9 4.8
2017-Jan-13 05:00N 46°42' W 061°18'10 5.1 190 / 231008.2 5.1 5.0
2017-Jan-13 03:00N 46°48' W 061°06'4 4.1 180 / 221009.9 5.9 5.8
2017-Jan-13 02:00N 46°48' W 061°00'7 7.3 190 / 231010.4 6.8 6.7
2017-Jan-13 01:00N 46°54' W 060°54'1010.2 210 / 251010.6 7.2 7.1
2017-Jan-13 00:00N 47°00' W 060°42'1010.1 220 / 231011.0 7.8 7.7
2017-Jan-12 23:00N 47°06' W 060°30'8 8.2 230 / 321011.2 10.1 9.9
2017-Jan-12 22:00N 47°06' W 060°18'1514.5 170 / 251013.9 4.2 4.1
2017-Jan-12 21:00N 46°54' W 060°06'2019.8 180 / 261015.2 4.7 4.6
2017-Jan-12 20:00N 46°36' W 059°54'1312.7 170 / 251018.1 4.6 4.5
2017-Jan-12 19:00N 46°24' W 059°48'1312.7 170 / 231020.1 4.5 4.4
2017-Jan-12 18:00N 46°12' W 059°42'1312.7 180 / 161022.5 3.1 3.0
2017-Jan-12 17:00N 46°00' W 059°36'1514.6 180 / 201024.5 3.3 3.2
2017-Jan-12 16:00N 45°48' W 059°48'1514.6 190 / 181026.2 3.4 3.3
2017-Jan-12 15:00N 45°36' W 060°00'1414.0 190 / 171027.7 3.2 3.1
2017-Jan-12 14:00N 45°30' W 060°18'1514.7 180 / 191028.8 3.4 3.3
2017-Jan-12 13:00N 45°18' W 060°30'1414.0 170 / 171028.8 3.5 3.4
2017-Jan-12 12:00N 45°12' W 060°48'1414.0 190 / 131028.9 3.1 3.0
2017-Jan-12 11:00N 45°06' W 061°06'1717.5 210 / 171029.4 2.4 2.3
2017-Jan-12 10:00N 44°54' W 061°24'9 8.5 180 / 171028.9 1.5 1.4
2017-Jan-12 09:00N 44°54' W 061°36'1010.4 180 / 131029.1 1.0 0.9
2017-Jan-12 08:00N 44°48' W 061°48'9 8.5 200 / 71029.4 1.2 1.1
2017-Jan-12 07:00N 44°48' W 062°00'1010.4 210 / 101029.5 1.9 1.8
2017-Jan-12 06:00N 44°42' W 062°12'1010.4 220 / 101029.8 2.3 2.2
2017-Jan-12 05:00N 44°36' W 062°24'9 8.5 250 / 121030.4 2.4 2.3
2017-Jan-12 04:00N 44°36' W 062°36'1010.4 250 / 111030.1 3.1 3.0
2017-Jan-12 03:00N 44°30' W 062°48'7 7.4 250 / 171029.8 3.4 3.3
2017-Jan-12 02:00N 44°24' W 062°54'1717.1 240 / 151029.9 4.3 4.2
2017-Jan-12 01:00N 44°24' W 063°18'1010.5 250 / 231029.2 4.9 4.7
2017-Jan-12 00:00N 44°30' W 063°30'7 7.4 240 / 191027.2 5.2 5.0
2017-Jan-11 23:00N 44°36' W 063°36'6 1.2 230 / 151027.4 6.4 6.2
2017-Jan-11 18:00N 44°42' W 063°36'0 0.0 170 / 91025.7 7.1 6.6
2017-Jan-11 12:00N 44°42' W 063°36'0 0.0 150 / 181033.3 3.7 2.9
2017-Jan-11 11:00N 44°42' W 063°36'0 0.0 160 / 151033.9 3.6 1.6
2017-Jan-11 10:00N 44°42' W 063°36'0 0.0 160 / 141034.6 3.7 0.5
2017-Jan-11 09:00N 44°42' W 063°36'0 0.0 160 / 141035.3 3.4 0.3
2017-Jan-11 08:00N 44°42' W 063°36'0 0.0 160 / 151036.3 3.0 0.4
2017-Jan-11 07:00N 44°42' W 063°36'0 0.0 160 / 151037.4 2.6-0.1
2017-Jan-11 06:00N 44°42' W 063°36'0 0.0 160 / 131038.5 2.1-0.8
2017-Jan-11 05:00N 44°42' W 063°36'0 0.0 160 / 111039.4 1.4-1.6
2017-Jan-11 04:00N 44°42' W 063°36'0 0.0 160 / 111040.8 0.8-2.6
2017-Jan-11 03:00N 44°42' W 063°36'1312.7 160 / 121041.5 0.9-3.4
2017-Jan-11 02:00N 44°30' W 063°30'1312.8 160 / 161041.7 0.4-3.9
2017-Jan-11 01:00N 44°30' W 063°12'1414.2 150 / 171042.3 0.3-4.7
2017-Jan-11 00:00N 44°36' W 062°54'1312.8 160 / 161043.0 -0.1-5.0
2017-Jan-10 23:00N 44°36' W 062°36'1414.1 170 / 141043.3 -0.3-5.7
2017-Jan-10 22:00N 44°42' W 062°18'1818.1 170 / 151043.5 -0.7-5.4
2017-Jan-10 21:00N 44°48' W 061°54'1010.4 180 / 141044.0 -1.1-5.9
2017-Jan-10 20:00N 44°54' W 061°42'1717.0 180 / 111044.2 -1.7-6.6
2017-Jan-10 19:00N 44°54' W 061°18'1514.7 190 / 111043.9 -1.2-6.8
2017-Jan-10 18:00N 45°06' W 061°06'1717.5 190 / 91044.2 -2.1-6.6
2017-Jan-10 17:00N 45°18' W 060°48'1414.0 250 / 91044.5 -2.7-7.4
2017-Jan-10 16:00N 45°24' W 061°06'1312.6 210 / 161045.1 -3.6-6.8
2017-Jan-10 15:00N 45°24' W 061°24'0 0.0 290 / 21045.7 -8.1-8.6
2017-Jan-10 14:00N 45°24' W 061°24'0 0.0 260 / 21045.7 -10.9-11.7
2017-Jan-10 13:00N 45°24' W 061°24'4 2.1 300 / 31045.4 -12.6-13.5
2017-Jan-10 11:00N 45°24' W 061°18'4 4.2 270 / 41044.0 -11.1-12.8
2017-Jan-10 10:00N 45°24' W 061°12'4 4.2 240 / 71043.5 -10.8-12.4
2017-Jan-10 09:00N 45°24' W 061°06'8 8.4 250 / 61042.8 -10.3-12.9
2017-Jan-10 08:00N 45°24' W 060°54'4 4.2 290 / 51042.6 -10.1-15.0
2017-Jan-10 07:00N 45°24' W 060°48'4 4.2 290 / 41041.8 -9.7-16.8
2017-Jan-10 06:00N 45°24' W 060°42'7 7.3 280 / 81040.8 -9.7-13.2
2017-Jan-10 05:00N 45°30' W 060°36'4 4.2 280 / 111040.5 -10.2-13.2
2017-Jan-10 04:00N 45°30' W 060°30'7 7.3 300 / 141040.2 -10.6-13.3
2017-Jan-10 03:00N 45°36' W 060°24'4 4.2 310 / 151039.6 -10.9-14.3
2017-Jan-10 02:00N 45°36' W 060°18'10 5.2 290 / 161038.6 -10.6-13.5
2017-Jan-10 00:00N 45°42' W 060°06'1010.3 290 / 171035.5 -10.2-13.2
2017-Jan-09 23:00N 45°48' W 059°54'0 0.0 280 / 221033.7 -10.1-13.3
2017-Jan-09 22:00N 45°48' W 059°54'7 7.3 290 / 231032.4 -9.8-13.2
2017-Jan-09 21:00N 45°54' W 059°48'4 4.2 290 / 211030.9 -9.6-12.8
2017-Jan-09 20:00N 45°54' W 059°42'18 9.0 290 / 241029.2 -9.5-13.5
2017-Jan-09 18:00N 46°12' W 059°42'1514.6 270 / 261025.1 -8.3-11.9
2017-Jan-09 17:00N 46°24' W 059°54'1514.6 290 / 241024.1 -7.9-12.6
2017-Jan-09 16:00N 46°36' W 060°06'1312.7 270 / 231023.3 -7.7-12.2
2017-Jan-09 15:00N 46°48' W 060°12'2019.8 270 / 191022.5 -8.0-12.6
2017-Jan-09 14:00N 47°06' W 060°24'1413.7 270 / 221021.7 -6.8-10.6
2017-Jan-09 13:00N 47°00' W 060°42'1717.2 260 / 281021.1 -8.9-11.7
2017-Jan-09 12:00N 46°48' W 061°00'1413.7 260 / 291021.2 -9.4-11.5
2017-Jan-09 11:00N 46°42' W 061°18'1717.2 270 / 221021.1 -9.9-12.3
2017-Jan-09 10:00N 46°30' W 061°36'1010.2 250 / 271021.2 -11.4-13.1
2017-Jan-09 09:00N 46°24' W 061°48'1717.3 260 / 261021.1 -12.5-14.6
2017-Jan-09 08:00N 46°12' W 062°06'1716.6 280 / 251021.4 -13.2-16.0
2017-Jan-09 07:00N 46°12' W 062°30'0 0.0 280 / 181021.2 -12.7-16.3
2017-Jan-09 06:00N 46°12' W 062°30'0 0.0 270 / 161020.1 -13.4-17.1
2017-Jan-09 05:00N 46°12' W 062°30'0 0.0 280 / 111019.1 -12.6-15.5
2017-Jan-09 04:00N 46°12' W 062°30'7 7.3 280 / 121017.8 -11.3-15.1
2017-Jan-09 03:00N 46°06' W 062°24'1514.6 280 / 191018.0 -9.4-12.0
2017-Jan-09 02:00N 45°54' W 062°36'1312.5 300 / 191018.0 -9.3-11.1
2017-Jan-09 01:00N 45°54' W 062°54'1817.7 290 / 191017.5 -8.0-10.7
2017-Jan-09 00:00N 46°00' W 063°18'2120.5 290 / 191016.8 -7.9-10.9
2017-Jan-08 23:00N 46°12' W 063°42'1010.2 310 / 201015.8 -8.8-12.4
2017-Jan-08 22:00N 46°18' W 063°54'1413.8 290 / 171015.3 -8.3-11.5
2017-Jan-08 21:00N 46°24' W 064°12'4 4.1 300 / 201014.1 -8.7-11.3
2017-Jan-08 20:00N 46°24' W 064°18'4 4.1 300 / 161012.8 -8.9-11.2
2017-Jan-08 19:00N 46°24' W 064°12'30 7.6 310 / 181011.4 -8.2-10.1
2017-Jan-08 15:00N 46°54' W 064°18'7 3.6 010 / 311007.5 -5.6-6.6
2017-Jan-08 13:00N 46°48' W 064°24'7 7.3 360 / 311006.1 -5.4-6.4
2017-Jan-08 12:00N 46°42' W 064°30'1312.7 020 / 211005.3 -5.2-6.4
2017-Jan-08 11:00N 46°30' W 064°24'0 0.0 020 / 231006.3 -5.3-5.5
2017-Jan-08 10:00N 46°30' W 064°24'7 7.3 360 / 221008.1 -5.9-6.4
2017-Jan-08 09:00N 46°36' W 064°30'6 6.0 350 / 291009.8 -8.5-8.8
2017-Jan-08 08:00N 46°42' W 064°30'7 7.3 010 / 121011.4 -6.4-6.9
2017-Jan-08 07:00N 46°48' W 064°24'7 7.3 020 / 161014.2 -7.5-7.9
2017-Jan-08 06:00N 46°54' W 064°18'7 7.3 020 / 131015.9 -8.1-8.9
2017-Jan-08 05:00N 47°00' W 064°12'7 7.3 010 / 111019.1 -8.7-9.8
2017-Jan-08 04:00N 47°06' W 064°06'1010.1 360 / 81020.5 -9.0-10.3
2017-Jan-08 03:00N 47°12' W 063°54'7 7.3 360 / 91021.6 -8.8-12.1
2017-Jan-08 02:00N 47°18' W 063°48'8 8.1 330 / 81023.1 -8.7-12.5
2017-Jan-08 01:00N 47°18' W 063°36'1010.1 300 / 71025.3 -8.5-12.2
2017-Jan-08 00:00N 47°24' W 063°24'0 0.0 300 / 81025.3 -8.3-11.1
2017-Jan-07 23:00N 47°24' W 063°24'1212.2 300 / 61025.2 -8.2-11.3
2017-Jan-07 22:00N 47°24' W 063°06'1413.6 340 / 71024.4 -7.3-10.4
2017-Jan-07 21:00N 47°18' W 062°48'1413.6 340 / 111023.8 -7.2-10.4
2017-Jan-07 20:00N 47°12' W 062°30'1212.2 330 / 101024.6 -7.1-10.6
2017-Jan-07 19:00N 47°12' W 062°12'1413.6 280 / 61024.7 -6.9-11.0
2017-Jan-07 18:00N 47°06' W 061°54'1413.6 270 / 81023.9 -6.4-10.8
2017-Jan-07 17:00N 47°12' W 061°36'1312.7 290 / 201023.6 -6.1-8.5
2017-Jan-07 16:00N 47°24' W 061°30'1212.0 280 / 211023.0 -5.7-10.5
2017-Jan-07 15:00N 47°36' W 061°30'1212.0 280 / 121023.1 -5.9-9.9
2017-Jan-07 14:00N 47°24' W 061°30'6 6.0 270 / 181023.7 -5.9-10.5
2017-Jan-07 13:00N 47°30' W 061°30'7 7.2 290 / 181022.1 -5.9-11.2
2017-Jan-07 12:00N 47°36' W 061°24'13 6.3 300 / 211020.9 -6.0-10.9
2017-Jan-07 10:00N 47°24' W 061°18'6 6.0 280 / 191019.7 -6.3-11.5
2017-Jan-07 09:00N 47°18' W 061°18'1010.1 280 / 191018.6 -6.4-11.4
2017-Jan-07 08:00N 47°12' W 061°30'   290 / 231018.3 -6.3-10.7
Track history (hours):
 
Tides and Currents Weather Stations Pressure Air Temp Water Temp Dewpoint Dewpoint Depression Visibility Wind Speed Wind Dir Waves Ship Positions

Edward Cornwallis

Last reported at 2017-Jan-17 08:00 UTC. Time now 2017-Jan-17 08:50 UTC.
Position N 46°36' W 061°18'.

Length 83 m; draft 6 m.

Type: SAR. MMSI: 316020000.

Wind from 310 at 25 knots

Barometer 1013.0 mb
Air temperature -0.6 ° C
Dewpoint -4.0 ° C

Date/timePositionNaut miles runAvg speedWind from/ knotsBaromVisibWave heightAir tempDewpointWater temp
2017-Jan-17 08:00N 46°36' W 061°18'7 7.3 310 / 251013.0 -0.6-4.0
2017-Jan-17 07:00N 46°42' W 061°12'7 7.3 290 / 251012.5 -0.9-4.0
2017-Jan-17 06:00N 46°48' W 061°06'7 7.3 290 / 271012.1 -1.0-4.0
2017-Jan-17 05:00N 46°54' W 061°00'4 4.1 270 / 281011.3 -1.4-2.6
2017-Jan-17 04:00N 46°54' W 060°54'4 4.1 260 / 271011.6 -1.4-3.2
2017-Jan-17 03:00N 46°54' W 060°48'1514.5 220 / 291012.2 -2.9-3.6
2017-Jan-17 02:00N 47°06' W 060°36'17 8.6 220 / 291012.7 -4.2-7.3
2017-Jan-17 00:00N 46°54' W 060°18'1312.7 200 / 211018.2 -6.2-12.9
2017-Jan-16 23:00N 46°42' W 060°12'1514.6 200 / 191019.8 -6.4-12.8
2017-Jan-16 22:00N 46°30' W 060°24'0 0.0 220 / 211021.3 -6.7-13.5
2017-Jan-16 21:00N 46°30' W 060°24'7 7.3 220 / 101021.2 -6.3-11.9
2017-Jan-16 20:00N 46°36' W 060°18'4 4.1 220 / 141022.4 -6.0-13.0
2017-Jan-16 19:00N 46°36' W 060°24'0 0.0 240 / 71022.7 -5.7-12.1
2017-Jan-16 18:00N 46°36' W 060°24'7 7.3 260 / 51022.9 -5.6-12.4
2017-Jan-16 17:00N 46°42' W 060°18'0 0.0 220 / 81024.0 -5.7-12.2
2017-Jan-16 16:00N 46°42' W 060°18'6 6.0 260 / 41024.7 -7.3-10.9
2017-Jan-16 15:00N 46°48' W 060°18'6 6.0 240 / 81025.8 -6.6-12.9
2017-Jan-16 14:00N 46°54' W 060°18'4 4.1 270 / 51026.5 -7.2-13.1
2017-Jan-16 13:00N 46°54' W 060°24'0 0.0 280 / 91026.9 -7.7-12.6
2017-Jan-16 12:00N 46°54' W 060°24'0 0.0 290 / 101026.6 -8.2-13.2
2017-Jan-16 11:00N 46°54' W 060°24'4 4.1 310 / 121025.8 -8.2-13.3
2017-Jan-16 10:00N 46°54' W 060°18'4 4.1 330 / 161024.6 -8.0-13.0
2017-Jan-16 09:00N 46°54' W 060°12'4 4.1 310 / 251024.8 -8.4-13.3
2017-Jan-16 08:00N 46°54' W 060°18'0 0.0 310 / 231024.4 -8.3-12.1
2017-Jan-16 07:00N 46°54' W 060°18'0 0.0 310 / 211024.0 -8.4-12.3
2017-Jan-16 06:00N 46°54' W 060°18'0 0.0 300 / 211023.5 -8.4-12.4
2017-Jan-16 05:00N 46°54' W 060°18'0 0.0 310 / 251022.7 -8.4-13.9
2017-Jan-16 04:00N 46°54' W 060°18'0 0.0 300 / 201022.3 -8.2-15.3
2017-Jan-16 03:00N 46°54' W 060°18'0 0.0 310 / 231022.0 -7.8-13.8
2017-Jan-16 02:00N 46°54' W 060°18'1514.5 310 / 241021.9 -7.4-13.3
2017-Jan-16 01:00N 47°06' W 060°30'1616.3 310 / 281021.5 -7.9-13.8
2017-Jan-16 00:00N 47°06' W 060°54'1717.4 320 / 301021.1 -8.0-12.6
2017-Jan-15 23:00N 47°00' W 061°18'1212.3 320 / 311020.5 -8.2-8.9
2017-Jan-15 22:00N 47°00' W 061°36'1413.7 310 / 311020.0 -7.6-10.4
2017-Jan-15 21:00N 46°54' W 061°54'1616.4 320 / 261019.4 -7.3-11.8
2017-Jan-15 20:00N 46°54' W 062°18'1212.3 300 / 251019.2 -8.0-10.6
2017-Jan-15 19:00N 46°54' W 062°36'1212.3 310 / 231019.0 -8.4-11.4
2017-Jan-15 18:00N 46°54' W 062°54'1616.4 300 / 221018.6 -8.9-11.5
2017-Jan-15 17:00N 46°54' W 063°18'1717.5 300 / 211018.7 -9.0-12.6
2017-Jan-15 16:00N 46°48' W 063°42'8 8.2 300 / 221019.0 -9.2-13.1
2017-Jan-15 15:00N 46°48' W 063°54'6 6.0 300 / 131019.3 -9.5-13.7
2017-Jan-15 14:00N 46°54' W 063°54'1212.0 300 / 211019.0 -9.1-13.1
2017-Jan-15 13:00N 47°06' W 063°54'4 4.1 290 / 191018.1 -10.0-13.7
2017-Jan-15 12:00N 47°06' W 064°00'4 4.1 290 / 161017.8 -10.3-13.9
2017-Jan-15 11:00N 47°06' W 064°06'0 0.0 270 / 171017.6 -10.3-12.7
2017-Jan-15 10:00N 47°06' W 064°06'15 7.3 270 / 201017.8 -10.6-12.8
2017-Jan-15 08:00N 46°54' W 064°18'7 3.6 260 / 221019.3 -10.5-13.9
2017-Jan-15 06:00N 46°48' W 064°24'7 7.3 230 / 191021.3 -10.4-18.4
2017-Jan-15 05:00N 46°42' W 064°30'7 3.6 240 / 181022.4 -10.9-18.1
2017-Jan-15 03:00N 46°36' W 064°24'6 6.0 240 / 171024.7 -12.0-19.3
2017-Jan-15 02:00N 46°30' W 064°24'7 7.3 250 / 201025.9 -12.2-19.8
2017-Jan-15 01:00N 46°24' W 064°18'4 4.1 260 / 191026.6 -12.3-19.9
2017-Jan-15 00:00N 46°24' W 064°12'7 7.3 260 / 211027.4 -12.5-20.5
2017-Jan-14 23:00N 46°18' W 064°06'4 4.1 260 / 181028.2 -11.8-20.0
2017-Jan-14 22:00N 46°18' W 064°00'4 4.1 250 / 161028.5 -11.5-20.5
2017-Jan-14 21:00N 46°18' W 063°54'7 7.3 270 / 171028.8 -11.3-19.9
2017-Jan-14 20:00N 46°12' W 063°48'1413.8 270 / 181029.1 -11.5-19.5
2017-Jan-14 19:00N 46°06' W 063°30'1010.3 290 / 51029.6 -11.4-19.2
2017-Jan-14 18:00N 46°00' W 063°18'1817.7 290 / 71029.8 -12.2-18.8
2017-Jan-14 17:00N 45°54' W 062°54'8 8.4 310 / 81029.9 -12.5-16.5
2017-Jan-14 16:00N 45°54' W 062°42'1312.5 310 / 261030.5 -13.1-16.5
2017-Jan-14 15:00N 45°54' W 062°24'1312.7 290 / 201031.3 -12.7-17.3
2017-Jan-14 14:00N 46°06' W 062°18'0 0.0 290 / 261030.9 -12.4-16.0
2017-Jan-14 13:00N 46°06' W 062°18'7 7.3 280 / 291030.0 -12.8-15.3
2017-Jan-14 12:00N 46°12' W 062°12'4 4.2 280 / 301029.1 -12.5-14.2
2017-Jan-14 11:00N 46°12' W 062°06'6 6.0 280 / 291028.0 -11.6-13.3
2017-Jan-14 10:00N 46°18' W 062°06'1010.2 290 / 291026.7 -10.9-13.3
2017-Jan-14 09:00N 46°24' W 061°54'7 7.3 300 / 321026.3 -10.2-13.8
2017-Jan-14 08:00N 46°30' W 062°00'8 8.3 290 / 311026.5 -9.2-12.5
2017-Jan-14 07:00N 46°30' W 062°12'1010.2 300 / 321026.3 -9.9-13.8
2017-Jan-14 06:00N 46°36' W 062°24'4 4.1 300 / 321025.5 -9.1-12.1
2017-Jan-14 05:00N 46°36' W 062°30'4 4.1 290 / 321024.8 -8.6-13.8
2017-Jan-14 04:00N 46°36' W 062°36'1010.2 300 / 381024.2 -8.7-14.7
2017-Jan-14 03:00N 46°42' W 062°48'4 4.1 300 / 381023.8 -8.4-15.1
2017-Jan-14 02:00N 46°42' W 062°54'8 8.2 290 / 271023.3 -6.4-12.4
2017-Jan-14 01:00N 46°42' W 063°06'7 7.3 290 / 271022.2 -5.7-12.6
2017-Jan-14 00:00N 46°48' W 063°12'8 8.2 300 / 351020.9 -6.3-14.6
2017-Jan-13 23:00N 46°48' W 063°24'1010.2 300 / 341020.4 -5.5-14.0
2017-Jan-13 22:00N 46°54' W 063°36'4 4.1 300 / 241018.8 -4.1-13.9
2017-Jan-13 21:00N 46°54' W 063°42'4 4.1 310 / 311017.4 -4.1-10.0
2017-Jan-13 20:00N 46°54' W 063°48'6 6.0 300 / 301014.6 -2.7-9.3
2017-Jan-13 19:00N 46°48' W 063°48'1010.2 300 / 251013.0 -0.7-6.5
2017-Jan-13 18:00N 46°42' W 063°36'1212.3 330 / 271011.1 -1.0-3.2
2017-Jan-13 17:00N 46°42' W 063°18'1817.5 270 / 171010.0 2.9-2.1
2017-Jan-13 16:00N 46°36' W 062°54'1010.2 240 / 181010.6 3.1 1.0
2017-Jan-13 15:00N 46°30' W 062°42'1212.4 250 / 221010.4 3.7 1.6
2017-Jan-13 14:00N 46°30' W 062°24'0 0.0 260 / 171010.7 5.2 3.8
2017-Jan-13 13:00N 46°30' W 062°24'4 4.1 250 / 151010.1 6.1 5.4
2017-Jan-13 12:00N 46°30' W 062°18'8 8.3 250 / 181008.5 5.8 5.7
2017-Jan-13 11:00N 46°30' W 062°06'1212.4 240 / 191007.3 6.6 6.5
2017-Jan-13 10:00N 46°30' W 061°48'7 7.3 210 / 211007.2 4.2 4.2
2017-Jan-13 09:00N 46°24' W 061°42'7 7.3 200 / 161006.9 3.8 3.7
2017-Jan-13 08:00N 46°30' W 061°36'7 7.3 190 / 211006.5 4.2 4.1
2017-Jan-13 07:00N 46°36' W 061°30'4 4.1 190 / 221006.9 4.4 4.3
2017-Jan-13 06:00N 46°36' W 061°24'7 7.3 190 / 241007.1 4.9 4.8
2017-Jan-13 05:00N 46°42' W 061°18'10 5.1 190 / 231008.2 5.1 5.0
2017-Jan-13 03:00N 46°48' W 061°06'4 4.1 180 / 221009.9 5.9 5.8
2017-Jan-13 02:00N 46°48' W 061°00'7 7.3 190 / 231010.4 6.8 6.7
2017-Jan-13 01:00N 46°54' W 060°54'1010.2 210 / 251010.6 7.2 7.1
2017-Jan-13 00:00N 47°00' W 060°42'1010.1 220 / 231011.0 7.8 7.7
2017-Jan-12 23:00N 47°06' W 060°30'8 8.2 230 / 321011.2 10.1 9.9
2017-Jan-12 22:00N 47°06' W 060°18'1514.5 170 / 251013.9 4.2 4.1
2017-Jan-12 21:00N 46°54' W 060°06'2019.8 180 / 261015.2 4.7 4.6
2017-Jan-12 20:00N 46°36' W 059°54'1312.7 170 / 251018.1 4.6 4.5
2017-Jan-12 19:00N 46°24' W 059°48'1312.7 170 / 231020.1 4.5 4.4
2017-Jan-12 18:00N 46°12' W 059°42'1312.7 180 / 161022.5 3.1 3.0
2017-Jan-12 17:00N 46°00' W 059°36'1514.6 180 / 201024.5 3.3 3.2
2017-Jan-12 16:00N 45°48' W 059°48'1514.6 190 / 181026.2 3.4 3.3
2017-Jan-12 15:00N 45°36' W 060°00'1414.0 190 / 171027.7 3.2 3.1
2017-Jan-12 14:00N 45°30' W 060°18'1514.7 180 / 191028.8 3.4 3.3
2017-Jan-12 13:00N 45°18' W 060°30'1414.0 170 / 171028.8 3.5 3.4
2017-Jan-12 12:00N 45°12' W 060°48'1414.0 190 / 131028.9 3.1 3.0
2017-Jan-12 11:00N 45°06' W 061°06'1717.5 210 / 171029.4 2.4 2.3
2017-Jan-12 10:00N 44°54' W 061°24'9 8.5 180 / 171028.9 1.5 1.4
2017-Jan-12 09:00N 44°54' W 061°36'1010.4 180 / 131029.1 1.0 0.9
2017-Jan-12 08:00N 44°48' W 061°48'9 8.5 200 / 71029.4 1.2 1.1
2017-Jan-12 07:00N 44°48' W 062°00'1010.4 210 / 101029.5 1.9 1.8
2017-Jan-12 06:00N 44°42' W 062°12'1010.4 220 / 101029.8 2.3 2.2
2017-Jan-12 05:00N 44°36' W 062°24'9 8.5 250 / 121030.4 2.4 2.3
2017-Jan-12 04:00N 44°36' W 062°36'1010.4 250 / 111030.1 3.1 3.0
2017-Jan-12 03:00N 44°30' W 062°48'7 7.4 250 / 171029.8 3.4 3.3
2017-Jan-12 02:00N 44°24' W 062°54'1717.1 240 / 151029.9 4.3 4.2
2017-Jan-12 01:00N 44°24' W 063°18'1010.5 250 / 231029.2 4.9 4.7
2017-Jan-12 00:00N 44°30' W 063°30'7 7.4 240 / 191027.2 5.2 5.0
2017-Jan-11 23:00N 44°36' W 063°36'6 1.2 230 / 151027.4 6.4 6.2
2017-Jan-11 18:00N 44°42' W 063°36'0 0.0 170 / 91025.7 7.1 6.6
2017-Jan-11 12:00N 44°42' W 063°36'0 0.0 150 / 181033.3 3.7 2.9
2017-Jan-11 11:00N 44°42' W 063°36'0 0.0 160 / 151033.9 3.6 1.6
2017-Jan-11 10:00N 44°42' W 063°36'0 0.0 160 / 141034.6 3.7 0.5
2017-Jan-11 09:00N 44°42' W 063°36'0 0.0 160 / 141035.3 3.4 0.3
2017-Jan-11 08:00N 44°42' W 063°36'0 0.0 160 / 151036.3 3.0 0.4
2017-Jan-11 07:00N 44°42' W 063°36'0 0.0 160 / 151037.4 2.6-0.1
2017-Jan-11 06:00N 44°42' W 063°36'0 0.0 160 / 131038.5 2.1-0.8
2017-Jan-11 05:00N 44°42' W 063°36'0 0.0 160 / 111039.4 1.4-1.6
2017-Jan-11 04:00N 44°42' W 063°36'0 0.0 160 / 111040.8 0.8-2.6
2017-Jan-11 03:00N 44°42' W 063°36'1312.7 160 / 121041.5 0.9-3.4
2017-Jan-11 02:00N 44°30' W 063°30'1312.8 160 / 161041.7 0.4-3.9
2017-Jan-11 01:00N 44°30' W 063°12'1414.2 150 / 171042.3 0.3-4.7
2017-Jan-11 00:00N 44°36' W 062°54'1312.8 160 / 161043.0 -0.1-5.0
2017-Jan-10 23:00N 44°36' W 062°36'1414.1 170 / 141043.3 -0.3-5.7
2017-Jan-10 22:00N 44°42' W 062°18'1818.1 170 / 151043.5 -0.7-5.4
2017-Jan-10 21:00N 44°48' W 061°54'1010.4 180 / 141044.0 -1.1-5.9
2017-Jan-10 20:00N 44°54' W 061°42'1717.0 180 / 111044.2 -1.7-6.6
2017-Jan-10 19:00N 44°54' W 061°18'1514.7 190 / 111043.9 -1.2-6.8
2017-Jan-10 18:00N 45°06' W 061°06'1717.5 190 / 91044.2 -2.1-6.6
2017-Jan-10 17:00N 45°18' W 060°48'1414.0 250 / 91044.5 -2.7-7.4
2017-Jan-10 16:00N 45°24' W 061°06'1312.6 210 / 161045.1 -3.6-6.8
2017-Jan-10 15:00N 45°24' W 061°24'0 0.0 290 / 21045.7 -8.1-8.6
2017-Jan-10 14:00N 45°24' W 061°24'0 0.0 260 / 21045.7 -10.9-11.7
2017-Jan-10 13:00N 45°24' W 061°24'4 2.1 300 / 31045.4 -12.6-13.5
2017-Jan-10 11:00N 45°24' W 061°18'4 4.2 270 / 41044.0 -11.1-12.8
2017-Jan-10 10:00N 45°24' W 061°12'4 4.2 240 / 71043.5 -10.8-12.4
2017-Jan-10 09:00N 45°24' W 061°06'8 8.4 250 / 61042.8 -10.3-12.9
2017-Jan-10 08:00N 45°24' W 060°54'4 4.2 290 / 51042.6 -10.1-15.0
2017-Jan-10 07:00N 45°24' W 060°48'4 4.2 290 / 41041.8 -9.7-16.8
2017-Jan-10 06:00N 45°24' W 060°42'7 7.3 280 / 81040.8 -9.7-13.2
2017-Jan-10 05:00N 45°30' W 060°36'4 4.2 280 / 111040.5 -10.2-13.2
2017-Jan-10 04:00N 45°30' W 060°30'7 7.3 300 / 141040.2 -10.6-13.3
2017-Jan-10 03:00N 45°36' W 060°24'4 4.2 310 / 151039.6 -10.9-14.3
2017-Jan-10 02:00N 45°36' W 060°18'10 5.2 290 / 161038.6 -10.6-13.5
2017-Jan-10 00:00N 45°42' W 060°06'1010.3 290 / 171035.5 -10.2-13.2
2017-Jan-09 23:00N 45°48' W 059°54'0 0.0 280 / 221033.7 -10.1-13.3
2017-Jan-09 22:00N 45°48' W 059°54'7 7.3 290 / 231032.4 -9.8-13.2
2017-Jan-09 21:00N 45°54' W 059°48'4 4.2 290 / 211030.9 -9.6-12.8
2017-Jan-09 20:00N 45°54' W 059°42'18 9.0 290 / 241029.2 -9.5-13.5
2017-Jan-09 18:00N 46°12' W 059°42'1514.6 270 / 261025.1 -8.3-11.9
2017-Jan-09 17:00N 46°24' W 059°54'1514.6 290 / 241024.1 -7.9-12.6
2017-Jan-09 16:00N 46°36' W 060°06'1312.7 270 / 231023.3 -7.7-12.2
2017-Jan-09 15:00N 46°48' W 060°12'2019.8 270 / 191022.5 -8.0-12.6
2017-Jan-09 14:00N 47°06' W 060°24'1413.7 270 / 221021.7 -6.8-10.6
2017-Jan-09 13:00N 47°00' W 060°42'1717.2 260 / 281021.1 -8.9-11.7
2017-Jan-09 12:00N 46°48' W 061°00'1413.7 260 / 291021.2 -9.4-11.5
2017-Jan-09 11:00N 46°42' W 061°18'1717.2 270 / 221021.1 -9.9-12.3
2017-Jan-09 10:00N 46°30' W 061°36'1010.2 250 / 271021.2 -11.4-13.1
2017-Jan-09 09:00N 46°24' W 061°48'1717.3 260 / 261021.1 -12.5-14.6
2017-Jan-09 08:00N 46°12' W 062°06'1716.6 280 / 251021.4 -13.2-16.0
2017-Jan-09 07:00N 46°12' W 062°30'0 0.0 280 / 181021.2 -12.7-16.3
2017-Jan-09 06:00N 46°12' W 062°30'0 0.0 270 / 161020.1 -13.4-17.1
2017-Jan-09 05:00N 46°12' W 062°30'0 0.0 280 / 111019.1 -12.6-15.5
2017-Jan-09 04:00N 46°12' W 062°30'7 7.3 280 / 121017.8 -11.3-15.1
2017-Jan-09 03:00N 46°06' W 062°24'1514.6 280 / 191018.0 -9.4-12.0
2017-Jan-09 02:00N 45°54' W 062°36'1312.5 300 / 191018.0 -9.3-11.1
2017-Jan-09 01:00N 45°54' W 062°54'1817.7 290 / 191017.5 -8.0-10.7
2017-Jan-09 00:00N 46°00' W 063°18'2120.5 290 / 191016.8 -7.9-10.9
2017-Jan-08 23:00N 46°12' W 063°42'1010.2 310 / 201015.8 -8.8-12.4
2017-Jan-08 22:00N 46°18' W 063°54'1413.8 290 / 171015.3 -8.3-11.5
2017-Jan-08 21:00N 46°24' W 064°12'4 4.1 300 / 201014.1 -8.7-11.3
2017-Jan-08 20:00N 46°24' W 064°18'4 4.1 300 / 161012.8 -8.9-11.2
2017-Jan-08 19:00N 46°24' W 064°12'30 7.6 310 / 181011.4 -8.2-10.1
2017-Jan-08 15:00N 46°54' W 064°18'7 3.6 010 / 311007.5 -5.6-6.6
2017-Jan-08 13:00N 46°48' W 064°24'7 7.3 360 / 311006.1 -5.4-6.4
2017-Jan-08 12:00N 46°42' W 064°30'1312.7 020 / 211005.3 -5.2-6.4
2017-Jan-08 11:00N 46°30' W 064°24'0 0.0 020 / 231006.3 -5.3-5.5
2017-Jan-08 10:00N 46°30' W 064°24'7 7.3 360 / 221008.1 -5.9-6.4
2017-Jan-08 09:00N 46°36' W 064°30'6 6.0 350 / 291009.8 -8.5-8.8
2017-Jan-08 08:00N 46°42' W 064°30'7 7.3 010 / 121011.4 -6.4-6.9
2017-Jan-08 07:00N 46°48' W 064°24'7 7.3 020 / 161014.2 -7.5-7.9
2017-Jan-08 06:00N 46°54' W 064°18'7 7.3 020 / 131015.9 -8.1-8.9
2017-Jan-08 05:00N 47°00' W 064°12'7 7.3 010 / 111019.1 -8.7-9.8
2017-Jan-08 04:00N 47°06' W 064°06'1010.1 360 / 81020.5 -9.0-10.3
2017-Jan-08 03:00N 47°12' W 063°54'7 7.3 360 / 91021.6 -8.8-12.1
2017-Jan-08 02:00N 47°18' W 063°48'8 8.1 330 / 81023.1 -8.7-12.5
2017-Jan-08 01:00N 47°18' W 063°36'1010.1 300 / 71025.3 -8.5-12.2
2017-Jan-08 00:00N 47°24' W 063°24'0 0.0 300 / 81025.3 -8.3-11.1
2017-Jan-07 23:00N 47°24' W 063°24'1212.2 300 / 61025.2 -8.2-11.3
2017-Jan-07 22:00N 47°24' W 063°06'1413.6 340 / 71024.4 -7.3-10.4
2017-Jan-07 21:00N 47°18' W 062°48'1413.6 340 / 111023.8 -7.2-10.4
2017-Jan-07 20:00N 47°12' W 062°30'1212.2 330 / 101024.6 -7.1-10.6
2017-Jan-07 19:00N 47°12' W 062°12'1413.6 280 / 61024.7 -6.9-11.0
2017-Jan-07 18:00N 47°06' W 061°54'1413.6 270 / 81023.9 -6.4-10.8
2017-Jan-07 17:00N 47°12' W 061°36'1312.7 290 / 201023.6 -6.1-8.5
2017-Jan-07 16:00N 47°24' W 061°30'1212.0 280 / 211023.0 -5.7-10.5
2017-Jan-07 15:00N 47°36' W 061°30'1212.0 280 / 121023.1 -5.9-9.9
2017-Jan-07 14:00N 47°24' W 061°30'6 6.0 270 / 181023.7 -5.9-10.5
2017-Jan-07 13:00N 47°30' W 061°30'7 7.2 290 / 181022.1 -5.9-11.2
2017-Jan-07 12:00N 47°36' W 061°24'13 6.3 300 / 211020.9 -6.0-10.9
2017-Jan-07 10:00N 47°24' W 061°18'6 6.0 280 / 191019.7 -6.3-11.5
2017-Jan-07 09:00N 47°18' W 061°18'1010.1 280 / 191018.6 -6.4-11.4
2017-Jan-07 08:00N 47°12' W 061°30'   290 / 231018.3 -6.3-10.7

Dump ship's entire track history